createdAt,value
2017-06-16T00:09:58.083Z,1.87
2017-06-16T00:12:24.269Z,1.80
2017-06-16T00:14:50.569Z,2.00
2017-06-16T00:17:16.762Z,1.87
2017-06-16T00:19:42.956Z,2.00
2017-06-16T00:30:58.781Z,2.30
2017-06-16T00:33:24.990Z,2.17
2017-06-16T00:35:51.181Z,1.87
2017-06-16T00:50:03.642Z,1.93
2017-06-16T01:10:08.845Z,2.10
2017-06-16T01:12:35.058Z,2.40
2017-06-16T01:15:01.266Z,2.03
2017-06-16T01:17:27.485Z,2.17
2017-06-16T01:19:53.660Z,1.90
2017-06-16T01:31:09.133Z,2.40
2017-06-16T01:33:35.373Z,1.83
2017-06-16T01:36:01.564Z,1.67
2017-06-16T01:50:14.233Z,1.70
2017-06-16T01:55:42.909Z,2.53
2017-06-16T01:58:09.336Z,1.90
2017-06-16T02:00:35.540Z,1.67
2017-06-16T02:03:01.745Z,1.63
2017-06-16T02:05:27.889Z,1.67
2017-06-16T02:10:50.670Z,1.70
2017-06-16T02:13:16.945Z,2.00
2017-06-16T02:15:43.185Z,2.20
2017-06-16T02:18:09.365Z,1.63
2017-06-16T02:20:35.533Z,2.10
2017-06-16T02:31:51.425Z,1.60
2017-06-16T02:34:17.576Z,1.67
2017-06-16T02:36:43.805Z,1.70
2017-06-16T02:50:56.101Z,1.80
2017-06-16T03:08:04.842Z,1.80
2017-06-16T03:10:31.006Z,1.87
2017-06-16T03:12:57.194Z,1.77
2017-06-16T03:15:23.502Z,2.07
2017-06-16T03:17:49.694Z,1.67
2017-06-16T03:20:15.862Z,1.80
2017-06-16T03:25:44.403Z,1.60
2017-06-16T03:28:10.554Z,1.90
2017-06-16T03:30:36.710Z,1.40
2017-06-16T03:33:02.914Z,1.53
2017-06-16T03:35:29.174Z,1.57
2017-06-16T03:49:41.421Z,1.67
2017-06-16T03:52:07.640Z,1.60
2017-06-16T04:09:16.601Z,1.43
2017-06-16T04:11:42.850Z,1.60
2017-06-16T04:14:09.073Z,1.47
2017-06-16T04:16:35.369Z,1.63
2017-06-16T04:19:01.565Z,1.43
2017-06-16T04:21:27.777Z,1.70
2017-06-16T04:29:47.057Z,1.40
2017-06-16T04:32:13.293Z,1.30
2017-06-16T04:34:39.475Z,1.70
2017-06-16T04:37:05.898Z,1.33
2017-06-16T04:48:46.093Z,1.50
2017-06-16T04:51:12.367Z,1.50
2017-06-16T04:53:44.524Z,1.60
2017-06-16T04:56:10.685Z,1.73
2017-06-16T04:58:36.847Z,1.30
2017-06-16T05:01:03.102Z,1.20
2017-06-16T05:03:29.301Z,1.53
2017-06-16T05:05:55.509Z,1.63
2017-06-16T05:08:21.838Z,1.40
2017-06-16T05:10:48.001Z,1.10
2017-06-16T05:13:14.432Z,1.50
2017-06-16T05:15:40.851Z,1.40
2017-06-16T05:18:07.089Z,1.70
2017-06-16T05:20:33.281Z,1.33
2017-06-16T05:28:52.591Z,1.33
2017-06-16T05:49:48.390Z,1.30
2017-06-16T05:52:14.645Z,1.33
2017-06-16T05:57:43.077Z,1.60
2017-06-16T06:00:09.327Z,1.50
2017-06-16T06:02:35.552Z,1.30
2017-06-16T06:05:01.746Z,1.37
2017-06-16T06:07:27.997Z,1.30
2017-06-16T06:09:54.196Z,1.20
2017-06-16T06:12:20.410Z,1.57
2017-06-16T06:14:46.648Z,1.40
2017-06-16T06:17:12.829Z,1.50
2017-06-16T06:19:39.262Z,1.67
2017-06-16T06:22:05.482Z,1.20
2017-06-16T06:30:24.769Z,1.30
2017-06-16T06:32:51.042Z,2.30
2017-06-16T06:35:17.210Z,2.10
2017-06-16T06:37:43.500Z,1.80
2017-06-16T06:49:26.760Z,1.90
2017-06-16T06:51:52.970Z,1.80
2017-06-16T07:09:03.846Z,2.83
2017-06-16T07:11:30.062Z,2.47
2017-06-16T07:13:56.223Z,2.50
2017-06-16T07:16:22.566Z,2.50
2017-06-16T07:18:48.750Z,2.47
2017-06-16T07:21:14.915Z,2.73
2017-06-16T07:26:43.396Z,2.37
2017-06-16T07:29:09.673Z,2.43
2017-06-16T07:31:35.896Z,3.13
2017-06-16T07:34:02.096Z,2.93
2017-06-16T07:36:28.290Z,2.97
2017-06-16T07:48:11.330Z,2.83
2017-06-16T07:50:37.543Z,2.10
2017-06-16T07:53:03.984Z,2.13
2017-06-16T08:07:16.374Z,2.50
2017-06-16T08:12:45.279Z,2.40
2017-06-16T08:15:11.518Z,2.27
2017-06-16T08:17:37.907Z,2.17
2017-06-16T08:20:04.092Z,2.20
2017-06-16T08:22:30.269Z,2.50
2017-06-16T08:27:53.173Z,2.10
2017-06-16T08:30:19.646Z,2.17
2017-06-16T08:32:46.264Z,2.23
2017-06-16T08:35:12.514Z,2.73
2017-06-16T08:37:39.949Z,2.17
2017-06-16T08:48:57.417Z,2.23
2017-06-16T08:51:23.764Z,2.30
2017-06-16T09:05:44.462Z,2.60
2017-06-16T09:08:10.671Z,2.90
2017-06-16T09:28:16.368Z,2.47
2017-06-16T09:30:42.574Z,2.77
2017-06-16T09:33:09.332Z,2.10
2017-06-16T09:35:35.492Z,2.17
2017-06-16T09:38:01.697Z,2.67
2017-06-16T09:49:17.641Z,2.10
2017-06-16T09:51:44.022Z,2.60
2017-06-16T10:08:52.698Z,2.67
2017-06-16T10:28:58.262Z,2.93
2017-06-16T10:31:24.504Z,2.13
2017-06-16T10:33:50.702Z,2.50
2017-06-16T10:36:16.978Z,2.30
2017-06-16T10:38:43.140Z,2.37
2017-06-16T10:49:58.942Z,2.10
2017-06-16T10:52:25.206Z,2.13
2017-06-16T11:03:46.985Z,2.40
2017-06-16T11:06:13.338Z,2.57
2017-06-16T11:08:39.715Z,2.40
2017-06-16T11:11:05.937Z,2.43
2017-06-16T11:13:32.092Z,2.40
2017-06-16T11:15:58.265Z,2.60
2017-06-16T11:18:24.461Z,2.60
2017-06-16T11:20:50.629Z,2.00
2017-06-16T11:23:16.837Z,2.80
2017-06-16T11:28:45.601Z,2.57
2017-06-16T11:31:12.538Z,2.30
2017-06-16T11:33:38.760Z,2.20
2017-06-16T11:36:04.981Z,2.90
2017-06-16T11:38:31.146Z,2.50
2017-06-16T11:50:14.733Z,2.17
2017-06-16T11:52:41.054Z,2.73
2017-06-16T12:09:49.798Z,2.13
2017-06-16T12:12:15.993Z,1.77
2017-06-16T12:14:42.213Z,2.20
2017-06-16T12:17:08.401Z,2.13
2017-06-16T12:19:34.638Z,2.17
2017-06-16T12:22:00.874Z,2.37
2017-06-16T12:30:20.135Z,2.37
2017-06-16T12:32:46.305Z,2.30
2017-06-16T12:35:12.514Z,2.17
2017-06-16T12:37:38.689Z,2.20
2017-06-16T12:49:22.214Z,2.40
2017-06-16T12:51:48.440Z,2.10
2017-06-16T12:54:14.611Z,2.40
2017-06-16T12:56:46.617Z,2.23
2017-06-16T12:59:12.902Z,2.40
2017-06-16T13:01:39.125Z,2.23
2017-06-16T13:04:05.318Z,1.97
2017-06-16T13:06:31.577Z,2.43
2017-06-16T13:08:57.743Z,2.03
2017-06-16T13:29:02.748Z,2.43
2017-06-16T13:31:28.933Z,2.63
2017-06-16T13:33:55.122Z,1.90
2017-06-16T13:36:21.366Z,2.10
2017-06-16T13:38:47.614Z,2.13
2017-06-16T13:50:03.460Z,2.20
2017-06-16T13:52:29.787Z,2.40
2017-06-16T14:06:47.779Z,2.10
2017-06-16T14:09:14.013Z,2.10
2017-06-16T14:11:46.347Z,2.00
2017-06-16T14:14:12.969Z,2.30
2017-06-16T14:16:39.262Z,2.30
2017-06-16T14:19:05.481Z,2.03
2017-06-16T14:21:32.386Z,2.10
2017-06-16T14:23:58.793Z,2.37
2017-06-16T14:29:22.409Z,2.30
2017-06-16T14:31:48.749Z,1.90
2017-06-16T14:34:15.000Z,1.93
2017-06-16T14:36:41.403Z,2.13
2017-06-16T14:39:07.814Z,2.00
2017-06-16T14:50:24.859Z,1.80
2017-06-16T14:52:51.835Z,1.53
2017-06-16T15:10:01.001Z,6.40
2017-06-16T15:12:27.278Z,4.50
2017-06-16T15:14:53.442Z,2.80
2017-06-16T15:17:19.605Z,2.60
2017-06-16T15:19:45.781Z,2.33
2017-06-16T15:22:31.009Z,2.20
2017-06-16T15:30:50.448Z,2.20
2017-06-16T15:33:16.685Z,2.50
2017-06-16T15:35:42.853Z,2.80
2017-06-16T15:38:09.128Z,2.10
2017-06-16T15:49:52.710Z,2.30
2017-06-16T15:52:18.933Z,2.40
2017-06-16T15:54:45.264Z,2.47
2017-06-16T16:08:57.617Z,1.87
2017-06-16T16:29:02.857Z,1.87
2017-06-16T16:31:29.137Z,1.73
2017-06-16T16:33:55.316Z,2.10
2017-06-16T16:36:21.509Z,1.70
2017-06-16T16:38:47.665Z,1.70
2017-06-16T16:50:03.510Z,1.50
2017-06-16T16:52:29.694Z,1.63
2017-06-16T16:54:55.864Z,1.70
2017-06-16T17:09:07.959Z,2.00
2017-06-16T17:29:13.196Z,2.00
2017-06-16T17:50:22.566Z,1.90
2017-06-16T17:52:48.741Z,2.33
2017-06-16T17:55:14.911Z,1.40
2017-06-16T18:10:17.613Z,1.77
2017-06-16T18:12:49.654Z,1.93
2017-06-16T18:15:15.801Z,2.50
2017-06-16T18:17:42.007Z,2.67
2017-06-16T18:20:08.183Z,2.43
2017-06-16T18:22:34.339Z,2.40
2017-06-16T18:25:00.495Z,2.60
2017-06-16T18:30:23.302Z,2.33
2017-06-16T18:32:49.497Z,2.00
2017-06-16T18:35:15.765Z,2.70
2017-06-16T18:37:42.034Z,1.93
2017-06-16T18:40:08.236Z,2.13
2017-06-16T18:51:23.869Z,1.97
2017-06-16T18:53:51.189Z,2.20
2017-06-16T19:10:59.932Z,2.30
2017-06-16T19:13:26.120Z,2.00
2017-06-16T19:15:52.284Z,2.10
2017-06-16T19:18:18.481Z,1.93
2017-06-16T19:20:44.799Z,2.00
2017-06-16T19:23:11.110Z,2.30
2017-06-16T19:25:37.291Z,2.27
2017-06-16T19:31:00.200Z,1.97
2017-06-16T19:33:26.358Z,2.33
2017-06-16T19:35:52.554Z,1.80
2017-06-16T19:38:18.738Z,2.20
2017-06-16T19:40:50.810Z,1.70
2017-06-16T19:43:16.984Z,2.13
2017-06-16T19:45:43.198Z,2.17
2017-06-16T19:48:09.491Z,2.10
2017-06-16T19:50:35.699Z,2.00
2017-06-16T19:53:01.856Z,1.87
2017-06-16T19:55:28.064Z,1.70
2017-06-16T20:06:49.626Z,1.70
2017-06-16T20:09:15.805Z,1.40
2017-06-16T20:11:42.086Z,2.10
2017-06-16T20:14:08.254Z,2.00
2017-06-16T20:16:34.473Z,2.00
2017-06-16T20:19:00.678Z,1.93
2017-06-16T20:21:26.875Z,1.70
2017-06-16T20:23:53.165Z,1.90
2017-06-16T20:32:12.381Z,1.80
2017-06-16T20:34:38.602Z,2.20
2017-06-16T20:37:04.766Z,2.10
2017-06-16T20:39:30.993Z,2.10
2017-06-16T20:53:43.503Z,2.00
2017-06-16T21:13:48.674Z,1.50
2017-06-16T21:16:14.870Z,1.90
2017-06-16T21:18:41.018Z,1.73
2017-06-16T21:21:13.172Z,1.50
2017-06-16T21:23:39.337Z,1.63
2017-06-16T21:34:55.253Z,1.43
2017-06-16T21:37:21.485Z,1.40
2017-06-16T21:39:47.693Z,1.60
2017-06-16T21:53:59.945Z,1.93
2017-06-16T22:14:05.189Z,1.70
2017-06-16T22:16:31.401Z,1.53
2017-06-16T22:18:57.665Z,1.67
2017-06-16T22:21:23.865Z,1.80
2017-06-16T22:23:50.045Z,1.67
2017-06-16T22:35:06.114Z,1.40
2017-06-16T22:37:32.272Z,1.50
2017-06-16T22:39:58.553Z,1.50
2017-06-16T22:54:10.834Z,1.70
2017-06-16T23:14:16.154Z,1.30
2017-06-16T23:16:42.429Z,1.40
2017-06-16T23:19:08.587Z,1.50
2017-06-16T23:21:34.788Z,1.83
2017-06-16T23:24:00.962Z,1.40
2017-06-16T23:35:16.649Z,1.47
2017-06-16T23:37:42.829Z,1.40
2017-06-16T23:40:09.002Z,1.57
2017-06-16T23:54:21.166Z,1.90
2017-06-16T23:56:53.161Z,1.40
2017-06-16T23:59:19.439Z,1.83
